Time;durP1;ratioP1;P1;durP2;ratioP2;P2;SDS_P1;SDS_P2;PMS_P1;PMS_P2;Temp;Humidity;BMP_temperature;BMP_pressure;BME280_temperature;BME280_humidity;BME280_pressure;Samples;Min_cycle;Max_cycle;Signal;HPM_P1;HPM_P2
2022/09/11 00:02:03;;;;;;;13.02;5.47;;;;;;;21.79;100.00;97881.78;5054088;28;20169;-52
2022/09/11 00:04:30;;;;;;;11.07;5.38;;;;;;;21.69;100.00;97876.81;5054267;28;20278;-52
2022/09/11 00:06:55;;;;;;;12.40;5.57;;;;;;;21.74;100.00;97868.38;5054059;28;20212;-52
2022/09/11 00:09:20;;;;;;;9.93;5.63;;;;;;;21.71;100.00;97872.19;5053924;28;20188;-53
2022/09/11 00:11:46;;;;;;;13.82;5.22;;;;;;;21.67;100.00;97870.09;5054123;28;20166;-52
2022/09/11 00:14:13;;;;;;;11.63;5.88;;;;;;;21.66;100.00;97878.97;5054260;28;20169;-53
2022/09/11 00:16:41;;;;;;;7.95;5.65;;;;;;;21.69;100.00;97876.00;5053825;28;20627;-52
2022/09/11 00:19:14;;;;;;;9.85;5.55;;;;;;;21.58;100.00;97879.94;5053959;28;20173;-53
2022/09/11 00:21:40;;;;;;;9.10;5.55;;;;;;;21.44;100.00;97879.97;5053702;28;20210;-53
2022/09/11 00:24:08;;;;;;;8.30;4.65;;;;;;;21.18;100.00;97863.84;5053905;28;20181;-52
2022/09/11 00:26:34;;;;;;;6.43;5.53;;;;;;;21.33;100.00;97875.19;5053787;28;20228;-53
2022/09/11 00:29:00;;;;;;;16.67;5.68;;;;;;;21.32;100.00;97866.47;5053855;28;20204;-53
2022/09/11 00:31:28;;;;;;;6.65;5.22;;;;;;;21.31;100.00;97878.00;5053771;28;20173;-53
2022/09/11 00:33:55;;;;;;;6.53;5.38;;;;;;;21.35;100.00;97892.44;5053740;28;20581;-53
2022/09/11 00:36:24;;;;;;;12.13;5.93;;;;;;;21.32;100.00;97886.72;5053395;28;20173;-53
2022/09/11 00:38:50;;;;;;;8.98;5.50;;;;;;;21.36;100.00;97885.31;5053402;28;20173;-52
2022/09/11 00:41:26;;;;;;;7.25;5.03;;;;;;;21.30;100.00;97891.34;5053436;28;20173;-53
2022/09/11 00:44:07;;;;;;;11.63;5.88;;;;;;;21.25;100.00;97888.44;5053597;28;20164;-53
2022/09/11 00:46:47;;;;;;;8.52;5.15;;;;;;;21.22;100.00;97889.63;5053476;28;20198;-52
2022/09/11 00:49:29;;;;;;;8.52;4.97;;;;;;;21.24;100.00;97892.06;5053362;28;20646;-52
2022/09/11 00:52:09;;;;;;;12.35;4.97;;;;;;;21.22;100.00;97883.56;5053141;28;20638;-53
2022/09/11 00:54:42;;;;;;;11.82;4.75;;;;;;;21.35;100.00;97884.53;5053342;28;20594;-53
2022/09/11 00:57:08;;;;;;;6.78;5.03;;;;;;;21.26;100.00;97885.63;5053156;28;20149;-53
2022/09/11 00:59:36;;;;;;;13.88;5.25;;;;;;;21.08;100.00;97889.63;5052953;28;20188;-52
2022/09/11 01:02:01;;;;;;;15.68;6.15;;;;;;;21.18;100.00;97877.00;5052946;28;20260;-52
2022/09/11 01:04:28;;;;;;;11.35;5.35;;;;;;;21.31;100.00;97882.44;5053176;28;20263;-53
2022/09/11 01:06:56;;;;;;;7.55;5.25;;;;;;;21.26;100.00;97864.56;5053024;28;20219;-52
2022/09/11 01:09:26;;;;;;;7.40;5.38;;;;;;;21.28;100.00;97877.56;5053042;28;20173;-53
2022/09/11 01:12:05;;;;;;;11.82;6.07;;;;;;;21.20;100.00;97877.63;5053034;28;20177;-52
2022/09/11 01:14:53;;;;;;;12.98;5.28;;;;;;;21.03;100.00;97863.88;5052665;28;20734;-52
2022/09/11 01:18:13;;;;;;;9.13;5.15;;;;;;;21.04;100.00;97870.78;5052668;28;20604;-52
2022/09/11 01:20:45;;;;;;;5.70;3.92;;;;;;;21.12;100.00;97872.50;5050493;28;20238;-52
2022/09/11 01:23:19;;;;;;;11.43;5.13;;;;;;;21.24;100.00;97861.31;5052438;28;20185;-53
2022/09/11 01:26:17;;;;;;;8.15;5.32;;;;;;;21.17;100.00;97859.59;5051213;28;20212;-52
2022/09/11 01:29:02;;;;;;;7.00;4.47;;;;;;;21.19;100.00;97852.31;5052767;28;20200;-52
2022/09/11 01:31:35;;;;;;;8.15;4.50;;;;;;;21.10;100.00;97854.25;5052998;28;20544;-53
2022/09/11 01:34:22;;;;;;;8.73;4.88;;;;;;;21.14;100.00;97854.69;5052393;28;20176;-53
2022/09/11 01:36:56;;;;;;;10.40;5.03;;;;;;;21.15;100.00;97851.09;5052889;28;20189;-52
2022/09/11 01:39:28;;;;;;;6.80;4.70;;;;;;;21.16;100.00;97836.94;5052468;28;20161;-52
2022/09/11 01:42:02;;;;;;;8.90;4.60;;;;;;;21.14;100.00;97845.00;5052535;28;20172;-52
2022/09/11 01:44:38;;;;;;;5.82;4.65;;;;;;;21.08;100.00;97829.94;5052400;28;20157;-53
2022/09/11 01:47:09;;;;;;;11.73;4.55;;;;;;;21.11;100.00;97834.03;5052357;28;20201;-52
2022/09/11 01:49:41;;;;;;;12.45;5.15;;;;;;;21.15;100.00;97840.56;5052083;28;20166;-52
2022/09/11 01:52:14;;;;;;;5.43;4.40;;;;;;;21.27;100.00;97833.81;5051592;28;20169;-52
2022/09/11 01:54:48;;;;;;;5.47;4.18;;;;;;;21.42;100.00;97843.28;5052151;28;20653;-52
2022/09/11 01:57:21;;;;;;;8.05;4.88;;;;;;;21.48;100.00;97833.81;5051969;28;20542;-52
2022/09/11 01:59:51;;;;;;;6.38;4.57;;;;;;;21.57;100.00;97835.34;5051943;28;20645;-52
2022/09/11 02:02:24;;;;;;;7.65;4.40;;;;;;;21.52;100.00;97833.28;5051910;28;20173;-52
2022/09/11 02:05:02;;;;;;;8.68;4.85;;;;;;;21.60;100.00;97834.97;5051976;28;20185;-52
2022/09/11 02:07:34;;;;;;;4.95;4.53;;;;;;;21.65;100.00;97841.31;5051717;28;20200;-52
2022/09/11 02:10:07;;;;;;;7.75;4.40;;;;;;;21.62;100.00;97814.53;5052158;28;20184;-52
2022/09/11 02:12:42;;;;;;;7.10;3.78;;;;;;;21.62;100.00;97833.78;5051807;28;20169;-52
2022/09/11 02:15:09;;;;;;;5.78;3.97;;;;;;;21.74;100.00;97827.03;5052080;28;20161;-53
2022/09/11 02:17:47;;;;;;;5.32;4.18;;;;;;;21.94;100.00;97848.28;5051955;28;20177;-52
2022/09/11 02:20:12;;;;;;;7.80;4.45;;;;;;;22.02;100.00;97856.06;5051720;28;20219;-53
2022/09/11 02:22:39;;;;;;;7.63;4.82;;;;;;;21.89;100.00;97855.94;5051733;28;20201;-52
2022/09/11 02:25:05;;;;;;;9.38;4.65;;;;;;;21.77;100.00;97858.28;5051942;28;20192;-52
2022/09/11 02:27:31;;;;;;;8.43;4.47;;;;;;;21.38;100.00;97826.25;5051792;28;20585;-53
2022/09/11 02:29:58;;;;;;;5.20;4.70;;;;;;;21.43;100.00;97863.34;5051763;28;20192;-52
2022/09/11 02:32:25;;;;;;;5.28;4.80;;;;;;;21.28;100.00;97845.97;5051801;28;20677;-52
2022/09/11 02:34:54;;;;;;;8.27;4.90;;;;;;;21.23;100.00;97864.97;5051751;28;20311;-53
2022/09/11 02:37:35;;;;;;;12.15;5.07;;;;;;;21.35;100.00;97860.00;5051547;28;20177;-52
2022/09/11 02:40:30;;;;;;;11.05;5.53;;;;;;;21.28;100.00;97864.38;5051602;28;20158;-52
2022/09/11 02:43:15;;;;;;;8.93;4.93;;;;;;;21.21;100.00;97866.94;5051779;28;20182;-52
2022/09/11 02:46:06;;;;;;;8.63;5.38;;;;;;;21.13;100.00;97863.59;5051760;28;20183;-53
2022/09/11 02:48:50;;;;;;;7.35;5.18;;;;;;;20.74;100.00;97852.56;5051989;28;20164;-52
2022/09/11 02:51:27;;;;;;;8.50;5.28;;;;;;;20.70;100.00;97861.78;5051662;28;20237;-52
2022/09/11 02:54:21;;;;;;;9.13;5.90;;;;;;;20.62;100.00;97867.94;5051716;28;20184;-52
2022/09/11 02:57:11;;;;;;;9.25;5.45;;;;;;;20.52;100.00;97874.47;5051396;28;20173;-52
2022/09/11 02:59:43;;;;;;;10.40;6.05;;;;;;;20.56;100.00;97868.66;5051523;28;20170;-52
2022/09/11 03:02:12;;;;;;;7.68;5.50;;;;;;;20.60;100.00;97879.63;5051674;28;20167;-52
2022/09/11 03:04:38;;;;;;;6.10;5.47;;;;;;;20.49;100.00;97882.69;5052473;28;20189;-52
2022/09/11 03:07:04;;;;;;;6.03;5.32;;;;;;;20.42;100.00;97872.09;5054940;28;20612;-52
2022/09/11 03:09:29;;;;;;;7.30;5.63;;;;;;;20.43;100.00;97876.38;5055350;28;20547;-52
2022/09/11 03:11:54;;;;;;;5.90;4.85;;;;;;;20.62;100.00;97869.75;5055061;28;20169;-53
2022/09/11 03:14:20;;;;;;;4.95;4.40;;;;;;;20.87;100.00;97882.44;5055018;28;20177;-52
2022/09/11 03:16:45;;;;;;;7.32;4.40;;;;;;;20.94;100.00;97890.47;5054905;28;20666;-53
2022/09/11 03:19:11;;;;;;;7.47;5.05;;;;;;;21.04;100.00;97872.59;5055113;28;20264;-52
2022/09/11 03:21:37;;;;;;;8.52;5.35;;;;;;;20.99;100.00;97875.75;5055138;28;20260;-52
2022/09/11 03:24:04;;;;;;;7.68;4.88;;;;;;;21.00;100.00;97873.94;5054770;28;20264;-52
2022/09/11 03:26:31;;;;;;;7.70;5.50;;;;;;;20.95;100.00;97877.16;5054668;28;20645;-52
2022/09/11 03:28:57;;;;;;;9.98;4.70;;;;;;;21.01;100.00;97876.41;5054713;28;20194;-52
2022/09/11 03:31:22;;;;;;;6.82;4.53;;;;;;;21.07;100.00;97874.84;5054928;28;20330;-52
2022/09/11 03:33:48;;;;;;;8.48;4.50;;;;;;;21.15;100.00;97877.41;5054593;28;20646;-53
2022/09/11 03:36:13;;;;;;;9.23;4.60;;;;;;;21.10;100.00;97879.75;5054608;28;20264;-52
2022/09/11 03:38:39;;;;;;;7.75;4.50;;;;;;;21.06;100.00;97873.22;5054527;28;20181;-52
2022/09/11 03:41:04;;;;;;;6.07;4.97;;;;;;;21.08;100.00;97877.31;5054483;28;20180;-52
2022/09/11 03:43:30;;;;;;;6.75;5.45;;;;;;;20.88;100.00;97881.50;5054733;28;20204;-52
2022/09/11 03:45:56;;;;;;;7.03;4.90;;;;;;;20.86;100.00;97893.16;5054350;28;20719;-52
2022/09/11 03:48:21;;;;;;;8.15;4.00;;;;;;;20.76;100.00;97887.34;5054356;28;20260;-52
2022/09/11 03:50:47;;;;;;;10.48;4.88;;;;;;;20.83;100.00;97893.53;5054533;28;20230;-52
2022/09/11 03:53:13;;;;;;;6.82;5.43;;;;;;;20.81;100.00;97890.25;5054552;28;20181;-52
2022/09/11 03:55:39;;;;;;;9.38;5.82;;;;;;;20.86;100.00;97890.53;5054221;28;20169;-52
2022/09/11 03:58:06;;;;;;;9.32;5.85;;;;;;;20.78;100.00;97893.25;5054205;28;20186;-53
2022/09/11 04:00:32;;;;;;;5.35;4.60;;;;;;;20.73;100.00;97895.59;5054425;28;20260;-52
2022/09/11 04:02:58;;;;;;;9.32;5.68;;;;;;;20.56;100.00;97891.50;5054350;28;20173;-52
2022/09/11 04:05:24;;;;;;;12.27;6.00;;;;;;;20.53;100.00;97886.63;5053848;28;20718;-53
2022/09/11 04:07:51;;;;;;;8.77;5.35;;;;;;;20.60;100.00;97893.59;5054086;28;20208;-52
2022/09/11 04:10:18;;;;;;;10.35;6.38;;;;;;;20.57;100.00;97893.16;5054224;28;20177;-52
2022/09/11 04:12:44;;;;;;;8.98;5.85;;;;;;;20.49;100.00;97896.69;5054197;28;20655;-52
2022/09/11 04:15:10;;;;;;;12.27;5.65;;;;;;;20.36;100.00;97895.66;5053431;28;20756;-52
2022/09/11 04:17:35;;;;;;;8.82;5.80;;;;;;;20.32;100.00;97889.94;5053876;28;20172;-52
2022/09/11 04:20:02;;;;;;;8.98;5.15;;;;;;;20.36;100.00;97885.97;5053725;28;20230;-52
2022/09/11 04:22:28;;;;;;;8.90;5.07;;;;;;;20.32;100.00;97884.69;5054029;28;20180;-53
2022/09/11 04:24:53;;;;;;;8.40;5.65;;;;;;;20.44;100.00;97898.19;5053781;28;20177;-52
2022/09/11 04:27:20;;;;;;;9.35;5.60;;;;;;;20.50;100.00;97887.78;5053712;28;20208;-52
2022/09/11 04:29:45;;;;;;;12.00;5.43;;;;;;;20.60;100.00;97898.03;5053874;28;20181;-52
2022/09/11 04:32:11;;;;;;;8.63;5.55;;;;;;;20.67;100.00;97891.88;5053540;28;20189;-53
2022/09/11 04:34:36;;;;;;;5.35;4.82;;;;;;;20.78;100.00;97895.88;5053732;28;20180;-52
2022/09/11 04:37:02;;;;;;;6.53;4.90;;;;;;;20.85;100.00;97896.78;5053652;28;20673;-52
2022/09/11 04:39:28;;;;;;;8.52;5.60;;;;;;;20.70;100.00;97856.53;5053421;28;20169;-52
2022/09/11 04:41:54;;;;;;;6.95;5.40;;;;;;;21.02;100.00;97903.50;5053564;28;20658;-52
2022/09/11 04:44:20;;;;;;;8.20;6.13;;;;;;;21.05;100.00;97892.66;5053583;28;20269;-52
2022/09/11 04:46:46;;;;;;;7.60;5.53;;;;;;;21.08;100.00;97885.19;5053479;28;20638;-52
2022/09/11 04:49:11;;;;;;;8.48;5.60;;;;;;;21.12;100.00;97888.28;5053176;28;20177;-52
2022/09/11 04:51:38;;;;;;;6.18;5.43;;;;;;;21.21;100.00;97906.41;5053968;28;20176;-52
2022/09/11 04:54:04;;;;;;;11.23;5.80;;;;;;;21.25;100.00;97909.47;5053020;28;20196;-52
2022/09/11 04:56:33;;;;;;;9.07;6.35;;;;;;;21.32;100.00;97905.13;5053117;28;20323;-52
2022/09/11 04:59:04;;;;;;;6.65;5.82;;;;;;;21.34;100.00;97898.66;5053003;28;20669;-53
2022/09/11 05:01:32;;;;;;;8.13;5.53;;;;;;;21.41;100.00;97904.84;5053322;28;20173;-52
2022/09/11 05:03:59;;;;;;;11.45;5.65;;;;;;;21.50;100.00;97900.28;5053199;28;20674;-53
2022/09/11 05:06:24;;;;;;;8.18;5.72;;;;;;;21.52;100.00;97907.00;5052572;28;20690;-52
2022/09/11 05:08:51;;;;;;;8.38;5.72;;;;;;;21.56;100.00;97902.19;5052835;28;20184;-52
2022/09/11 05:11:19;;;;;;;7.20;5.13;;;;;;;21.62;100.00;97896.16;5052806;28;20177;-52
2022/09/11 05:13:45;;;;;;;5.80;5.22;;;;;;;21.68;100.00;97901.53;5052976;28;20234;-52
2022/09/11 05:16:13;;;;;;;6.35;5.22;;;;;;;21.66;100.00;97900.03;5052679;28;20173;-52
2022/09/11 05:18:40;;;;;;;5.35;4.80;;;;;;;21.63;100.00;97892.53;5052643;28;20177;-52
2022/09/11 05:21:11;;;;;;;5.40;4.82;;;;;;;21.71;100.00;97897.69;5052609;28;20679;-53
2022/09/11 05:23:37;;;;;;;8.65;4.82;;;;;;;21.82;100.00;97899.84;5052829;28;20545;-52
2022/09/11 05:26:04;;;;;;;5.72;5.20;;;;;;;21.89;100.00;97898.09;5052453;28;20197;-52
2022/09/11 05:28:31;;;;;;;7.85;5.03;;;;;;;21.90;100.00;97881.25;5051763;28;20177;-53
2022/09/11 05:30:58;;;;;;;8.30;5.43;;;;;;;22.02;100.00;97882.44;5052372;28;20177;-52
2022/09/11 05:33:25;;;;;;;4.88;4.38;;;;;;;22.06;100.00;97878.38;5052798;28;20642;-53
2022/09/11 05:35:52;;;;;;;6.90;5.50;;;;;;;22.13;100.00;97879.25;5052315;28;20642;-52
2022/09/11 05:38:19;;;;;;;7.35;5.50;;;;;;;22.23;100.00;97887.66;5052310;28;20639;-53
2022/09/11 05:40:49;;;;;;;6.15;4.55;;;;;;;22.30;100.00;97891.97;5052255;28;20188;-52
2022/09/11 05:43:16;;;;;;;6.97;4.97;;;;;;;22.25;100.00;97883.03;5052245;28;20649;-52
2022/09/11 05:45:43;;;;;;;5.18;4.60;;;;;;;22.38;100.00;97905.00;5052388;28;20184;-52
2022/09/11 05:48:09;;;;;;;5.70;4.55;;;;;;;22.42;100.00;97898.34;5052396;28;20272;-53
2022/09/11 05:50:35;;;;;;;6.75;5.22;;;;;;;22.48;100.00;97896.78;5052097;28;20173;-53
2022/09/11 05:53:00;;;;;;;7.38;4.53;;;;;;;22.57;100.00;97899.13;5052042;28;20594;-53
2022/09/11 05:55:26;;;;;;;5.32;4.82;;;;;;;22.59;100.00;97893.63;5052059;28;20215;-52
2022/09/11 05:57:52;;;;;;;8.30;4.93;;;;;;;22.63;100.00;97897.53;5052026;28;20306;-52
2022/09/11 06:00:17;;;;;;;6.63;5.18;;;;;;;22.70;100.00;97906.28;5052334;28;20720;-52
2022/09/11 06:02:44;;;;;;;6.78;4.80;;;;;;;22.71;100.00;97894.72;5051933;28;20180;-52
2022/09/11 06:05:10;;;;;;;9.43;5.00;;;;;;;22.70;100.00;97885.19;5052062;28;20229;-52
2022/09/11 06:07:36;;;;;;;5.57;4.93;;;;;;;22.78;100.00;97901.69;5051900;28;20215;-53
2022/09/11 06:10:02;;;;;;;6.63;5.10;;;;;;;22.82;100.00;97894.19;5051859;28;20172;-53
2022/09/11 06:12:28;;;;;;;7.40;5.30;;;;;;;22.93;100.00;97901.56;5051811;28;20646;-53
2022/09/11 06:14:53;;;;;;;5.43;4.90;;;;;;;22.91;100.00;97890.41;5051803;28;20213;-53
2022/09/11 06:17:19;;;;;;;5.05;4.55;;;;;;;23.02;100.00;97880.09;5052076;28;20177;-53
2022/09/11 06:19:46;;;;;;;7.03;5.60;;;;;;;23.03;100.00;97870.38;5051851;28;20181;-53
2022/09/11 06:22:11;;;;;;;5.15;4.75;;;;;;;23.32;100.00;97904.44;5051649;28;20183;-53
2022/09/11 06:24:36;;;;;;;5.93;4.70;;;;;;;23.39;100.00;97895.53;5051720;28;20173;-53
2022/09/11 06:27:02;;;;;;;7.05;4.43;;;;;;;23.54;100.00;97893.53;5051638;28;20200;-53
2022/09/11 06:29:27;;;;;;;8.15;5.10;;;;;;;23.44;100.00;97866.72;5051708;28;20608;-53
2022/09/11 06:31:53;;;;;;;7.65;4.90;;;;;;;23.67;100.00;97900.69;5051849;28;20204;-53
2022/09/11 06:34:18;;;;;;;5.57;5.03;;;;;;;23.69;100.00;97900.28;5051721;28;20177;-53
2022/09/11 06:36:44;;;;;;;5.05;4.50;;;;;;;23.77;100.00;97905.41;5051831;28;20173;-53
2022/09/11 06:39:10;;;;;;;5.95;4.60;;;;;;;23.81;100.00;97896.03;5053864;28;20177;-53
2022/09/11 06:41:35;;;;;;;6.53;4.63;;;;;;;23.85;100.00;97899.94;5055903;28;20555;-53
2022/09/11 06:44:01;;;;;;;4.22;3.90;;;;;;;23.96;100.00;97917.03;5055798;28;20713;-53
2022/09/11 06:46:27;;;;;;;5.53;3.65;;;;;;;23.99;100.00;97908.72;5055649;28;20201;-53
2022/09/11 06:48:54;;;;;;;7.18;3.70;;;;;;;24.06;99.67;97908.75;5055802;28;20177;-53
2022/09/11 06:51:21;;;;;;;5.40;3.45;;;;;;;24.24;99.55;97907.13;5056145;28;20215;-53
2022/09/11 06:53:46;;;;;;;4.72;3.20;;;;;;;24.31;94.30;97918.53;5055620;28;20188;-53
2022/09/11 06:56:14;;;;;;;5.18;2.85;;;;;;;24.33;93.42;97917.28;5055304;28;20203;-53
2022/09/11 06:58:40;;;;;;;2.70;2.50;;;;;;;24.43;87.94;97915.06;5055271;28;20181;-53
2022/09/11 07:01:10;;;;;;;3.05;2.78;;;;;;;24.50;92.03;97907.94;5055302;28;20180;-53
2022/09/11 07:03:39;;;;;;;5.00;3.10;;;;;;;24.66;91.69;97920.78;5055259;28;20172;-52
2022/09/11 07:06:05;;;;;;;6.53;3.65;;;;;;;24.59;96.54;97914.69;5055058;28;20212;-52
2022/09/11 07:08:30;;;;;;;5.30;3.58;;;;;;;24.54;90.59;97917.09;5055070;28;20200;-52
2022/09/11 07:11:02;;;;;;;3.88;3.58;;;;;;;24.72;92.26;97914.66;5055081;28;20644;-52
2022/09/11 07:13:28;;;;;;;3.67;3.03;;;;;;;24.80;90.96;97918.94;5055083;28;20158;-51
2022/09/11 07:16:06;;;;;;;5.68;3.88;;;;;;;24.89;92.84;97928.28;5055282;28;20268;-52
2022/09/11 07:18:36;;;;;;;5.15;3.60;;;;;;;24.97;94.10;97912.19;5054896;28;20221;-54
2022/09/11 07:21:10;;;;;;;3.70;3.40;;;;;;;25.04;94.74;97928.88;5055212;28;20184;-53
2022/09/11 07:23:37;;;;;;;3.55;2.80;;;;;;;25.17;91.57;97927.00;5055091;28;20172;-53
2022/09/11 07:26:12;;;;;;;3.40;3.10;;;;;;;25.28;88.72;97923.75;5054939;28;20567;-53
2022/09/11 07:28:38;;;;;;;4.45;2.35;;;;;;;25.43;78.16;97921.63;5054834;28;20161;-53
2022/09/11 07:31:10;;;;;;;1.58;1.48;;;;;;;25.63;58.66;97927.69;5054947;28;20669;-52
2022/09/11 07:33:44;;;;;;;2.60;1.70;;;;;;;25.78;58.08;97930.06;5054655;28;20242;-53
2022/09/11 07:36:11;;;;;;;2.20;1.80;;;;;;;25.91;55.57;97935.31;5054943;28;20177;-53
2022/09/11 07:38:40;;;;;;;5.10;2.08;;;;;;;25.96;56.45;97927.53;5054868;28;20206;-53
2022/09/11 07:41:07;;;;;;;3.45;1.75;;;;;;;26.05;55.35;97921.75;5054420;28;20177;-53
2022/09/11 07:43:36;;;;;;;2.90;1.73;;;;;;;26.18;56.68;97932.25;5054417;28;20185;-53
2022/09/11 07:46:04;;;;;;;3.60;2.17;;;;;;;26.31;58.38;97926.84;5054897;28;20201;-53
2022/09/11 07:48:30;;;;;;;2.33;1.80;;;;;;;26.35;57.44;97930.72;5054673;28;20263;-53
2022/09/11 07:51:03;;;;;;;4.28;2.40;;;;;;;26.42;59.16;97923.50;5053727;28;20173;-53
2022/09/11 07:53:48;;;;;;;4.70;2.13;;;;;;;26.47;59.33;97928.97;5054588;28;20173;-53
2022/09/11 07:56:17;;;;;;;4.43;2.50;;;;;;;26.55;60.41;97927.94;5054317;28;20599;-53
2022/09/11 07:58:43;;;;;;;5.80;2.70;;;;;;;26.60;60.09;97920.94;5054492;28;20181;-52
2022/09/11 08:01:18;;;;;;;6.53;3.10;;;;;;;26.67;58.43;97927.03;5054416;28;20252;-53
2022/09/11 08:03:44;;;;;;;5.93;2.65;;;;;;;26.73;58.79;97930.63;5054406;28;20180;-53
2022/09/11 08:06:16;;;;;;;4.53;2.45;;;;;;;26.71;58.25;97928.19;5053934;28;20212;-53
2022/09/11 08:08:42;;;;;;;2.80;2.47;;;;;;;26.77;58.72;97931.84;5054115;28;20164;-53
2022/09/11 08:11:10;;;;;;;4.15;2.60;;;;;;;26.80;57.96;97931.38;5054241;28;20181;-53
2022/09/11 08:13:36;;;;;;;4.38;2.80;;;;;;;26.83;59.07;97929.09;5054222;28;20185;-53
2022/09/11 08:16:02;;;;;;;3.33;2.47;;;;;;;26.75;58.54;97926.72;5053901;28;20176;-53
2022/09/11 08:18:28;;;;;;;4.78;2.47;;;;;;;26.84;57.17;97927.25;5053802;28;20176;-53
2022/09/11 08:21:08;;;;;;;5.72;3.10;;;;;;;26.86;56.84;97931.31;5053742;28;20188;-53
2022/09/11 08:23:34;;;;;;;3.85;2.75;;;;;;;26.88;57.29;97920.50;5053776;28;20183;-53
2022/09/11 08:26:08;;;;;;;2.80;2.60;;;;;;;26.89;57.75;97927.44;5053614;28;20646;-53
2022/09/11 08:28:35;;;;;;;2.67;2.45;;;;;;;26.88;56.46;97931.91;5053654;28;20201;-53
2022/09/11 08:31:02;;;;;;;4.63;2.08;;;;;;;26.91;55.27;97922.69;5053420;28;20180;-52
2022/09/11 08:33:28;;;;;;;5.47;2.95;;;;;;;26.95;56.88;97908.75;5053519;28;20210;-52
2022/09/11 08:35:56;;;;;;;4.90;2.38;;;;;;;26.99;56.47;97911.81;5053503;28;20234;-52
2022/09/11 08:38:21;;;;;;;3.00;2.03;;;;;;;26.94;54.91;97901.03;5053455;28;20173;-53
2022/09/11 08:40:47;;;;;;;2.80;2.00;;;;;;;27.00;55.78;97908.91;5053412;28;20177;-52
2022/09/11 08:43:25;;;;;;;2.83;2.33;;;;;;;26.99;54.53;97903.84;5053190;28;20214;-52
2022/09/11 08:45:57;;;;;;;7.25;2.15;;;;;;;27.08;53.77;97908.63;5053175;28;20195;-52
2022/09/11 08:48:33;;;;;;;3.22;1.70;;;;;;;27.16;51.77;97899.56;5053842;28;20157;-53
2022/09/11 08:50:59;;;;;;;1.98;1.88;;;;;;;27.29;49.40;97900.22;5053451;28;20172;-53
2022/09/11 08:53:25;;;;;;;3.33;2.67;;;;;;;27.32;50.48;97907.78;5053699;28;20173;-53
2022/09/11 08:56:07;;;;;;;4.32;2.08;;;;;;;27.32;48.82;97899.81;5053625;28;20635;-52
2022/09/11 08:59:13;;;;;;;3.08;1.67;;;;;;;27.27;47.09;97906.81;5053598;28;20161;-54
2022/09/11 09:02:20;;;;;;;3.63;2.20;;;;;;;27.10;48.83;97900.41;5053074;28;20556;-54
2022/09/11 09:04:45;;;;;;;3.58;2.20;;;;;;;27.07;49.60;97896.38;5052450;28;20208;-54
2022/09/11 09:07:17;;;;;;;2.53;2.33;;;;;;;26.95;51.03;97898.13;5053162;28;20621;-53
2022/09/11 09:10:01;;;;;;;1.90;1.70;;;;;;;26.92;49.54;97897.75;5053295;28;20170;-52
2022/09/11 09:12:58;;;;;;;3.30;2.20;;;;;;;26.85;48.76;97886.41;5052947;28;20172;-52
2022/09/11 09:15:33;;;;;;;4.25;2.22;;;;;;;26.85;49.77;97889.88;5053112;28;20201;-52
2022/09/11 09:18:06;;;;;;;3.28;2.10;;;;;;;26.93;48.60;97886.91;5053042;28;20626;-52
2022/09/11 09:20:37;;;;;;;2.95;2.33;;;;;;;26.94;47.92;97885.09;5052773;28;20188;-52
2022/09/11 09:23:24;;;;;;;2.97;2.35;;;;;;;26.95;47.88;97895.47;5053033;28;20231;-52
2022/09/11 09:25:59;;;;;;;1.85;1.75;;;;;;;26.97;46.34;97874.84;5052923;28;20165;-52
2022/09/11 09:28:42;;;;;;;1.95;1.85;;;;;;;27.10;46.96;97893.28;5052791;28;20611;-52
2022/09/11 09:31:11;;;;;;;3.28;1.80;;;;;;;27.17;45.64;97887.94;5052692;28;20196;-52
2022/09/11 09:33:59;;;;;;;3.72;1.80;;;;;;;27.25;46.42;97887.63;5052720;28;20177;-52
2022/09/11 09:36:32;;;;;;;3.30;2.28;;;;;;;27.38;46.87;97879.47;5053038;28;20169;-52
2022/09/11 09:38:58;;;;;;;4.15;2.20;;;;;;;27.41;47.26;97869.22;5053024;28;20530;-52
2022/09/11 09:41:51;;;;;;;1.73;1.63;;;;;;;27.60;44.94;97881.44;5052658;28;20368;-52
2022/09/11 09:44:16;;;;;;;4.80;2.80;;;;;;;27.64;44.59;97877.28;5052323;28;20706;-52
2022/09/11 09:46:45;;;;;;;2.97;2.30;;;;;;;27.72;44.74;97874.34;5052245;28;20284;-52
2022/09/11 09:49:16;;;;;;;5.78;2.20;;;;;;;27.74;43.63;97874.91;5052341;28;20173;-52
2022/09/11 09:51:41;;;;;;;3.20;2.20;;;;;;;27.66;42.53;97875.22;5052276;28;20172;-52
2022/09/11 09:54:14;;;;;;;2.63;1.65;;;;;;;27.60;42.95;97880.63;5052217;28;20166;-52
2022/09/11 09:56:42;;;;;;;2.90;2.50;;;;;;;27.56;44.28;97874.13;5052154;28;20677;-52
2022/09/11 09:59:07;;;;;;;2.55;1.63;;;;;;;27.60;43.96;97875.31;5052411;28;20196;-52
2022/09/11 10:01:49;;;;;;;2.15;1.90;;;;;;;27.56;43.26;97866.97;5052143;28;20177;-52
2022/09/11 10:04:19;;;;;;;4.70;2.22;;;;;;;27.63;44.39;97865.03;5051989;28;20161;-52
2022/09/11 10:06:46;;;;;;;2.05;1.85;;;;;;;27.68;43.83;97867.00;5051929;28;20682;-52
2022/09/11 10:09:48;;;;;;;2.83;1.90;;;;;;;27.75;43.25;97862.44;5051990;28;20168;-52
2022/09/11 10:12:19;;;;;;;3.58;2.40;;;;;;;27.85;43.91;97868.84;5052241;28;20180;-52
2022/09/11 10:15:02;;;;;;;2.20;2.00;;;;;;;27.94;43.37;97856.84;5051802;28;20196;-52
2022/09/11 10:17:28;;;;;;;4.70;2.03;;;;;;;28.03;43.73;97855.47;5052074;28;20207;-52
2022/09/11 10:19:55;;;;;;;4.15;2.45;;;;;;;28.10;43.83;97866.81;5052118;28;20195;-52
2022/09/11 10:22:31;;;;;;;4.18;2.22;;;;;;;28.17;43.38;97859.53;5052139;28;20211;-52
2022/09/11 10:25:10;;;;;;;2.33;2.13;;;;;;;28.30;43.33;97864.66;5051800;28;20679;-52
2022/09/11 10:27:58;;;;;;;5.53;1.65;;;;;;;28.43;41.32;97856.50;5052078;28;20602;-52
2022/09/11 10:30:25;;;;;;;3.35;1.70;;;;;;;28.46;40.84;97855.22;5051774;28;20267;-52
2022/09/11 10:32:50;;;;;;;1.20;1.20;;;;;;;28.49;41.25;97860.88;5052007;28;20177;-52
2022/09/11 10:35:17;;;;;;;4.65;1.80;;;;;;;28.57;41.12;97855.19;5051768;28;20169;-52
2022/09/11 10:37:42;;;;;;;2.00;1.83;;;;;;;28.73;40.54;97867.81;5051999;28;20541;-53
2022/09/11 10:40:19;;;;;;;2.60;1.88;;;;;;;28.91;41.48;97854.38;5051739;28;20180;-53
2022/09/11 10:42:45;;;;;;;3.13;2.00;;;;;;;29.07;40.98;97845.69;5051985;28;20159;-53
2022/09/11 10:45:15;;;;;;;3.35;1.98;;;;;;;29.32;40.32;97843.53;5051681;28;20549;-53
2022/09/11 10:47:41;;;;;;;2.00;1.80;;;;;;;29.43;39.53;97853.34;5051883;28;20193;-53
2022/09/11 10:50:16;;;;;;;3.08;1.70;;;;;;;29.43;39.42;97848.00;5051603;28;20184;-53
2022/09/11 10:52:56;;;;;;;2.05;1.90;;;;;;;29.54;38.79;97839.19;5051853;28;20187;-53
2022/09/11 10:55:24;;;;;;;3.65;2.53;;;;;;;29.64;39.03;97834.06;5052006;28;20649;-53
2022/09/11 10:57:56;;;;;;;2.47;2.10;;;;;;;29.67;38.76;97828.22;5051529;28;20173;-53
2022/09/11 11:00:27;;;;;;;2.05;1.75;;;;;;;29.74;39.64;97830.75;5051529;28;20234;-53
2022/09/11 11:03:10;;;;;;;3.72;2.10;;;;;;;29.79;39.23;97841.50;5051526;28;20711;-53
2022/09/11 11:06:02;;;;;;;4.03;1.63;;;;;;;29.84;39.04;97844.28;5051485;28;20188;-53
2022/09/11 11:08:28;;;;;;;3.22;2.10;;;;;;;29.93;39.03;97843.63;5051612;28;20217;-53
2022/09/11 11:11:16;;;;;;;2.10;1.90;;;;;;;29.86;38.67;97839.50;5051426;28;20185;-53
2022/09/11 11:14:20;;;;;;;5.85;2.17;;;;;;;29.66;38.93;97839.94;5051369;28;20180;-53
2022/09/11 11:17:37;;;;;;;2.63;2.42;;;;;;;29.40;41.57;97823.69;5051356;28;20183;-53
2022/09/11 11:20:27;;;;;;;4.32;2.70;;;;;;;29.44;40.36;97822.97;5049364;28;20197;-53
2022/09/11 11:23:05;;;;;;;2.25;2.05;;;;;;;29.34;40.84;97838.78;5051313;28;20185;-53
2022/09/11 11:25:49;;;;;;;2.42;2.22;;;;;;;29.24;40.44;97825.25;5052366;28;20227;-53
2022/09/11 11:28:46;;;;;;;2.97;1.95;;;;;;;29.23;40.34;97826.31;5054895;28;20158;-53
2022/09/11 11:31:36;;;;;;;2.45;2.20;;;;;;;29.11;41.10;97822.03;5054859;28;20638;-53
2022/09/11 11:34:16;;;;;;;2.53;2.33;;;;;;;29.13;42.29;97823.44;5054876;28;20157;-53
2022/09/11 11:36:45;;;;;;;2.08;1.98;;;;;;;29.14;42.25;97819.72;5055088;28;20248;-53
2022/09/11 11:39:32;;;;;;;2.28;2.13;;;;;;;29.13;42.09;97812.78;5054977;28;20181;-53
2022/09/11 11:42:26;;;;;;;3.72;2.60;;;;;;;29.14;41.65;97811.72;5054686;28;20192;-53
2022/09/11 11:45:04;;;;;;;3.13;2.60;;;;;;;29.13;41.80;97806.63;5054651;28;20169;-53
2022/09/11 11:47:40;;;;;;;2.63;2.40;;;;;;;29.13;43.11;97798.63;5054846;28;20189;-53